Time;durP1;ratioP1;P1;durP2;ratioP2;P2;SDS_P1;SDS_P2;PMS_P1;PMS_P2;Temp;Humidity;BMP_temperature;BMP_pressure;BME280_temperature;BME280_humidity;BME280_pressure;Samples;Min_cycle;Max_cycle;Signal;HPM_P1;HPM_P2
2023/06/23 00:01:01;;;;;;;19.10;5.15;;;22.90;1.00;;;;;;5051445;28;20025;-58
2023/06/23 00:03:27;;;;;;;19.52;3.97;;;22.90;1.00;;;;;;5050953;28;20163;-58
2023/06/23 00:05:53;;;;;;;19.40;4.78;;;22.80;1.00;;;;;;5051279;28;20025;-58
2023/06/23 00:08:19;;;;;;;18.90;4.93;;;22.80;1.00;;;;;;5050372;28;20380;-58
2023/06/23 00:10:44;;;;;;;11.13;4.35;;;22.70;1.00;;;;;;5051098;28;20017;-56
2023/06/23 00:13:11;;;;;;;19.52;4.82;;;22.70;3.90;;;;;;5050919;28;20028;-58
2023/06/23 00:15:37;;;;;;;14.45;4.95;;;22.60;1.00;;;;;;5051123;28;20025;-58
2023/06/23 00:18:03;;;;;;;12.73;4.63;;;22.50;1.00;;;;;;5051087;28;20040;-58
2023/06/23 00:20:28;;;;;;;18.83;4.95;;;22.50;63.20;;;;;;5051057;28;20029;-58
2023/06/23 00:22:55;;;;;;;9.48;4.10;;;22.40;99.90;;;;;;5050963;28;20021;-58
2023/06/23 00:25:21;;;;;;;13.90;4.90;;;22.30;99.90;;;;;;5050584;28;20021;-58
2023/06/23 00:27:46;;;;;;;18.88;5.68;;;22.30;1.00;;;;;;5050964;28;20495;-56
2023/06/23 00:30:13;;;;;;;11.05;4.57;;;22.20;99.90;;;;;;5050918;28;20024;-58
2023/06/23 00:32:40;;;;;;;11.95;4.88;;;22.20;99.90;;;;;;5051214;28;20028;-58
2023/06/23 00:35:08;;;;;;;15.10;4.70;;;22.20;70.10;;;;;;5049792;28;20032;-58
2023/06/23 00:37:37;;;;;;;13.05;4.28;;;22.10;99.90;;;;;;5050418;28;20040;-58
2023/06/23 00:40:15;;;;;;;23.75;5.93;;;22.10;99.90;;;;;;5050879;28;20025;-58
2023/06/23 00:42:52;;;;;;;12.77;5.00;;;22.10;99.90;;;;;;5051001;28;20095;-58
2023/06/23 00:45:18;;;;;;;16.73;5.03;;;22.00;1.00;;;;;;5051008;28;20044;-57
2023/06/23 00:47:45;;;;;;;11.70;4.28;;;22.00;1.00;;;;;;5050828;28;20025;-58
2023/06/23 00:50:18;;;;;;;12.20;4.50;;;22.00;99.90;;;;;;5051223;28;20032;-59
2023/06/23 00:52:51;;;;;;;;;;;21.90;1.00;;;;;;5054988;28;20021;-59
2023/06/23 00:55:21;;;;;;;15.82;4.25;;;21.80;1.00;;;;;;5054649;28;19955;-58
2023/06/23 00:57:48;;;;;;;13.70;5.20;;;21.80;99.90;;;;;;5054483;28;20056;-58
2023/06/23 01:00:18;;;;;;;15.73;5.28;;;21.70;1.00;;;;;;5054403;28;20024;-56
2023/06/23 01:02:46;;;;;;;17.17;4.78;;;21.60;99.90;;;;;;5052915;28;20024;-58
2023/06/23 01:05:12;;;;;;;19.00;4.85;;;21.70;68.70;;;;;;5053793;28;20361;-57
2023/06/23 01:08:03;;;;;;;24.73;5.20;;;21.80;99.90;;;;;;5054068;28;20052;-58
2023/06/23 01:10:38;;;;;;;13.93;4.57;;;21.80;4.60;;;;;;5053571;28;20074;-56
2023/06/23 01:13:17;;;;;;;15.10;4.50;;;21.70;99.90;;;;;;5053938;28;20017;-58
2023/06/23 01:15:56;;;;;;;12.93;4.82;;;21.70;99.90;;;;;;5053997;28;20041;-58
2023/06/23 01:18:57;;;;;;;19.98;5.43;;;21.70;42.60;;;;;;5053827;28;20025;-57
2023/06/23 01:21:39;;;;;;;10.90;3.97;;;21.80;99.90;;;;;;5053979;28;20021;-58
2023/06/23 01:24:31;;;;;;;14.25;4.57;;;21.70;99.90;;;;;;5054114;28;20100;-56
2023/06/23 01:27:18;;;;;;;10.10;4.07;;;21.70;1.00;;;;;;5052670;28;20072;-58
2023/06/23 01:29:50;;;;;;;15.18;5.53;;;21.70;1.00;;;;;;5053976;28;20028;-58
2023/06/23 01:32:28;;;;;;;23.15;5.90;;;21.70;99.90;;;;;;5053778;28;20021;-57
2023/06/23 01:35:03;;;;;;;11.68;5.10;;;21.60;99.90;;;;;;5053870;28;20376;-59
2023/06/23 01:37:34;;;;;;;11.13;5.15;;;21.60;99.90;;;;;;5053663;28;20112;-56
2023/06/23 01:40:09;;;;;;;15.93;5.20;;;21.60;78.70;;;;;;5053725;28;20032;-58
2023/06/23 01:42:39;;;;;;;18.17;5.20;;;21.50;1.00;;;;;;5053625;28;20388;-58
2023/06/23 01:45:07;;;;;;;28.13;5.13;;;21.40;99.90;;;;;;5053791;28;20040;-57
2023/06/23 01:47:39;;;;;;;15.50;6.65;;;21.30;99.90;;;;;;5053466;28;20021;-57
2023/06/23 01:50:07;;;;;;;15.90;5.18;;;20.90;1.00;;;;;;5053601;28;20020;-58
2023/06/23 01:52:34;;;;;;;15.30;5.07;;;20.70;1.00;;;;;;5053593;28;20021;-58
2023/06/23 01:55:02;;;;;;;16.25;5.30;;;20.50;1.00;;;;;;5053508;28;20372;-57
2023/06/23 01:57:30;;;;;;;13.50;4.38;;;20.30;1.00;;;;;;5053132;28;20049;-59
2023/06/23 01:59:57;;;;;;;8.63;4.68;;;20.10;1.00;;;;;;5053425;28;20103;-57
2023/06/23 02:02:25;;;;;;;14.60;5.18;;;19.90;17.10;;;;;;5051827;28;20025;-57
2023/06/23 02:04:54;;;;;;;13.73;4.90;;;19.70;17.90;;;;;;5053298;28;20025;-58
2023/06/23 02:07:21;;;;;;;13.35;5.40;;;19.50;23.40;;;;;;5052672;28;20090;-58
2023/06/23 02:09:48;;;;;;;13.15;4.88;;;19.50;25.00;;;;;;5053039;28;20546;-56
2023/06/23 02:12:16;;;;;;;9.82;5.05;;;19.30;21.60;;;;;;5052907;28;20029;-58
2023/06/23 02:14:44;;;;;;;15.80;4.38;;;19.30;34.80;;;;;;5051645;28;20028;-58
2023/06/23 02:17:10;;;;;;;7.10;4.05;;;19.10;47.50;;;;;;5052719;28;20499;-57
2023/06/23 02:19:46;;;;;;;11.35;4.70;;;19.00;41.90;;;;;;5052942;28;20021;-55
2023/06/23 02:22:17;;;;;;;7.03;3.60;;;18.90;46.20;;;;;;5052654;28;20025;-58
2023/06/23 02:24:45;;;;;;;11.48;4.38;;;18.80;55.10;;;;;;5052813;28;20674;-59
2023/06/23 02:27:12;;;;;;;11.50;4.55;;;18.70;61.60;;;;;;5063282;28;20095;-57
2023/06/23 02:29:39;;;;;;;12.02;4.80;;;18.70;65.80;;;;;;5072906;28;20044;-57
2023/06/23 02:32:06;;;;;;;10.07;4.93;;;18.70;59.80;;;;;;5072746;28;20020;-58
2023/06/23 02:34:34;;;;;;;16.38;4.88;;;18.70;62.90;;;;;;5072477;28;20467;-57
2023/06/23 02:37:04;;;;;;;14.20;5.10;;;18.60;66.70;;;;;;5072492;28;20373;-58
2023/06/23 02:39:33;;;;;;;11.65;4.47;;;18.40;76.50;;;;;;5072476;28;20379;-58
2023/06/23 02:42:00;;;;;;;15.43;4.93;;;18.20;77.20;;;;;;5072452;28;20143;-58
2023/06/23 02:44:38;;;;;;;13.80;5.15;;;18.20;84.90;;;;;;5072448;28;20458;-57
2023/06/23 02:47:08;;;;;;;18.33;4.32;;;18.00;88.50;;;;;;5072367;28;20028;-57
2023/06/23 02:49:37;;;;;;;14.52;5.00;;;17.90;91.50;;;;;;5072101;28;20360;-58
2023/06/23 02:52:05;;;;;;;6.43;4.55;;;17.90;93.10;;;;;;5072246;28;20017;-56
2023/06/23 02:54:36;;;;;;;13.57;5.25;;;17.90;93.50;;;;;;5070565;28;20027;-58
2023/06/23 02:57:03;;;;;;;10.35;4.47;;;17.90;91.20;;;;;;5072053;28;20040;-58
2023/06/23 02:59:31;;;;;;;11.45;4.22;;;17.90;92.80;;;;;;5072223;28;20107;-58
2023/06/23 03:01:59;;;;;;;11.13;4.45;;;17.90;93.20;;;;;;5071863;28;20074;-56
2023/06/23 03:04:25;;;;;;;8.77;3.75;;;17.90;92.30;;;;;;5071898;28;20016;-55
2023/06/23 03:06:51;;;;;;;8.80;3.72;;;17.90;90.20;;;;;;5071938;28;20033;-58
2023/06/23 03:09:17;;;;;;;9.10;3.97;;;17.90;85.90;;;;;;5071809;28;20379;-56
2023/06/23 03:11:43;;;;;;;10.73;4.10;;;17.80;87.50;;;;;;5071615;28;20028;-58
2023/06/23 03:14:08;;;;;;;9.70;4.88;;;17.70;91.80;;;;;;5071407;28;20024;-57
2023/06/23 03:16:49;;;;;;;7.13;3.72;;;17.70;90.50;;;;;;5071651;28;20017;-56
2023/06/23 03:19:31;;;;;;;7.68;4.05;;;17.70;90.50;;;;;;5071624;28;20113;-57
2023/06/23 03:22:13;;;;;;;9.00;4.13;;;17.80;92.80;;;;;;5071866;28;20025;-56
2023/06/23 03:24:43;;;;;;;5.82;3.58;;;17.80;90.10;;;;;;5071932;28;20013;-55
2023/06/23 03:27:15;;;;;;;8.32;4.10;;;17.70;90.20;;;;;;5071509;28;20036;-56
2023/06/23 03:29:48;;;;;;;9.35;3.30;;;17.60;87.60;;;;;;5071830;28;20054;-57
2023/06/23 03:32:20;;;;;;;6.73;3.57;;;17.60;89.50;;;;;;5071772;28;20101;-57
2023/06/23 03:34:58;;;;;;;4.80;3.33;;;17.50;90.20;;;;;;5071778;28;20285;-57
2023/06/23 03:37:29;;;;;;;3.78;3.05;;;17.50;88.30;;;;;;5071515;28;20078;-57
2023/06/23 03:40:08;;;;;;;9.27;4.93;;;17.50;89.10;;;;;;5070395;28;20495;-55
2023/06/23 03:42:38;;;;;;;11.45;4.18;;;17.50;89.20;;;;;;5071739;28;20051;-56
2023/06/23 03:45:08;;;;;;;8.25;3.92;;;17.50;89.60;;;;;;5071610;28;20025;-57
2023/06/23 03:47:36;;;;;;;5.75;3.28;;;17.60;89.20;;;;;;5071494;28;20025;-58
2023/06/23 03:50:10;;;;;;;5.32;3.10;;;17.60;90.60;;;;;;5071548;28;20467;-57
2023/06/23 03:52:38;;;;;;;7.75;3.75;;;17.60;88.30;;;;;;5071474;28;20361;-58
2023/06/23 03:55:06;;;;;;;5.32;2.95;;;17.70;90.00;;;;;;5071520;28;20464;-58
2023/06/23 03:57:33;;;;;;;5.70;3.22;;;17.70;88.50;;;;;;5071072;28;20059;-57
2023/06/23 04:00:01;;;;;;;13.45;3.83;;;17.80;90.60;;;;;;5071356;28;20020;-58
2023/06/23 04:02:30;;;;;;;9.07;3.50;;;17.80;93.00;;;;;;5071013;28;20025;-58
2023/06/23 04:04:58;;;;;;;6.60;2.95;;;17.80;93.20;;;;;;5071290;28;20120;-56
2023/06/23 04:07:25;;;;;;;8.23;3.80;;;17.90;92.70;;;;;;5070909;28;20031;-56
2023/06/23 04:09:53;;;;;;;9.48;3.20;;;17.90;90.60;;;;;;5071265;28;20078;-58
2023/06/23 04:12:21;;;;;;;6.63;4.00;;;18.00;85.20;;;;;;5071014;28;20033;-56
2023/06/23 04:14:49;;;;;;;6.03;3.03;;;18.10;76.70;;;;;;5071165;28;20028;-59
2023/06/23 04:17:17;;;;;;;5.22;3.15;;;18.00;76.00;;;;;;5070952;28;20029;-57
2023/06/23 04:19:46;;;;;;;5.30;2.83;;;18.00;70.30;;;;;;5071345;28;20079;-55
2023/06/23 04:22:14;;;;;;;5.20;3.30;;;18.10;63.20;;;;;;5071068;28;20032;-57
2023/06/23 04:24:40;;;;;;;9.75;4.28;;;18.10;64.60;;;;;;5070936;28;20032;-58
2023/06/23 04:27:10;;;;;;;5.95;3.63;;;18.00;68.30;;;;;;5074635;28;20074;-57
2023/06/23 04:29:38;;;;;;;8.38;3.70;;;18.00;73.50;;;;;;5075000;28;20128;-56
2023/06/23 04:32:04;;;;;;;7.63;3.75;;;18.10;76.30;;;;;;5075027;28;20012;-58
2023/06/23 04:34:30;;;;;;;7.05;3.72;;;18.20;76.80;;;;;;5074794;28;20119;-59
2023/06/23 04:37:02;;;;;;;7.05;3.28;;;18.30;70.00;;;;;;5074593;28;20021;-59
2023/06/23 04:39:31;;;;;;;4.18;3.17;;;18.40;68.50;;;;;;5074383;28;20078;-58
2023/06/23 04:42:03;;;;;;;4.28;3.13;;;18.50;71.40;;;;;;5074539;28;20483;-57
2023/06/23 04:44:32;;;;;;;5.35;2.70;;;18.50;64.40;;;;;;5074699;28;20035;-58
2023/06/23 04:47:02;;;;;;;8.70;6.40;;;18.70;64.10;;;;;;5074446;28;20017;-58
2023/06/23 04:49:31;;;;;;;8.00;3.45;;;18.90;59.50;;;;;;5074357;28;20032;-58
2023/06/23 04:52:02;;;;;;;3.88;3.00;;;19.00;51.20;;;;;;5074653;28;20109;-59
2023/06/23 04:54:41;;;;;;;5.10;2.63;;;19.10;16.90;;;;;;5074225;28;20017;-57
2023/06/23 04:57:21;;;;;;;4.38;3.22;;;19.30;16.20;;;;;;5074385;28;20040;-58
2023/06/23 04:59:51;;;;;;;6.45;2.97;;;19.40;2.80;;;;;;5074444;28;20712;-57
2023/06/23 05:02:19;;;;;;;8.27;3.25;;;19.50;28.70;;;;;;5074247;28;20020;-58
2023/06/23 05:04:48;;;;;;;8.50;3.38;;;19.50;24.10;;;;;;5074199;28;20506;-58
2023/06/23 05:07:17;;;;;;;8.40;2.90;;;19.60;13.50;;;;;;5073684;28;20039;-59
2023/06/23 05:09:46;;;;;;;5.78;2.95;;;19.70;1.00;;;;;;5074069;28;20499;-56
2023/06/23 05:12:15;;;;;;;4.57;3.33;;;19.60;1.00;;;;;;5070726;28;20017;-55
2023/06/23 05:14:43;;;;;;;12.07;4.57;;;19.60;1.00;;;;;;5073434;28;20012;-58
2023/06/23 05:17:11;;;;;;;6.68;3.47;;;19.50;4.30;;;;;;5072819;28;20029;-56
2023/06/23 05:19:41;;;;;;;5.25;3.22;;;19.50;14.30;;;;;;5073072;28;20090;-53
2023/06/23 05:22:08;;;;;;;6.82;2.92;;;19.50;16.50;;;;;;5072660;28;20052;-58
2023/06/23 05:24:50;;;;;;;4.97;3.63;;;19.50;22.90;;;;;;5073468;28;20055;-58
2023/06/23 05:27:20;;;;;;;4.28;2.92;;;19.40;38.50;;;;;;5073370;28;20021;-57
2023/06/23 05:29:48;;;;;;;9.52;3.97;;;19.30;41.70;;;;;;5072395;28;20019;-55
2023/06/23 05:32:16;;;;;;;4.05;3.03;;;19.50;2.10;;;;;;5072867;28;20020;-56
2023/06/23 05:34:45;;;;;;;4.57;3.08;;;19.60;3.10;;;;;;5072979;28;20086;-55
2023/06/23 05:37:12;;;;;;;6.82;2.78;;;19.60;2.30;;;;;;5072640;28;20047;-57
2023/06/23 05:39:39;;;;;;;5.32;2.97;;;19.50;1.00;;;;;;5073663;28;20376;-57
2023/06/23 05:42:05;;;;;;;6.05;3.53;;;19.50;1.00;;;;;;5073627;28;20373;-57
2023/06/23 05:44:32;;;;;;;5.18;2.88;;;19.40;1.00;;;;;;5073384;28;20052;-58
2023/06/23 05:47:00;;;;;;;4.43;2.60;;;19.30;1.00;;;;;;5073121;28;20466;-57
2023/06/23 05:49:29;;;;;;;3.25;2.20;;;19.30;1.00;;;;;;5073236;28;20082;-56
2023/06/23 05:52:02;;;;;;;5.90;3.30;;;19.40;1.00;;;;;;5073500;28;20027;-57
2023/06/23 05:54:30;;;;;;;3.75;2.67;;;19.50;1.00;;;;;;5073137;28;20082;-58
2023/06/23 05:56:59;;;;;;;3.95;2.72;;;19.60;1.00;;;;;;5073258;28;20131;-58
2023/06/23 05:59:33;;;;;;;8.05;3.42;;;19.70;1.00;;;;;;5073056;28;20107;-57
2023/06/23 06:02:01;;;;;;;5.40;2.60;;;19.70;1.00;;;;;;5073173;28;20127;-56
2023/06/23 06:04:30;;;;;;;3.28;2.42;;;19.80;1.00;;;;;;5072745;28;20039;-57
2023/06/23 06:06:57;;;;;;;2.97;2.50;;;19.80;1.00;;;;;;5072956;28;20009;-57
2023/06/23 06:09:25;;;;;;;5.25;2.38;;;19.80;1.00;;;;;;5071608;28;20017;-55
2023/06/23 06:11:53;;;;;;;5.05;2.78;;;19.90;1.00;;;;;;5071497;28;20017;-56
2023/06/23 06:14:20;;;;;;;3.47;2.35;;;19.90;1.00;;;;;;5072899;28;20024;-55
2023/06/23 06:16:47;;;;;;;3.38;2.42;;;20.10;1.00;;;;;;5072943;28;20352;-56
2023/06/23 06:19:16;;;;;;;7.43;3.08;;;20.20;1.00;;;;;;5071503;28;20433;-56
2023/06/23 06:21:43;;;;;;;2.88;2.30;;;20.20;1.00;;;;;;5072450;28;20082;-57
2023/06/23 06:24:11;;;;;;;7.53;2.58;;;20.20;1.00;;;;;;5071349;28;20055;-56
2023/06/23 06:26:37;;;;;;;4.13;2.72;;;20.20;1.00;;;;;;5072567;28;20017;-55
2023/06/23 06:29:05;;;;;;;4.10;2.17;;;20.30;1.00;;;;;;5072604;28;20028;-58
2023/06/23 06:31:38;;;;;;;4.97;2.03;;;20.50;1.00;;;;;;5072491;28;20123;-56
2023/06/23 06:34:09;;;;;;;4.60;2.22;;;20.60;1.00;;;;;;5072721;28;20029;-55
2023/06/23 06:36:41;;;;;;;3.25;2.00;;;20.60;99.90;;;;;;5072110;28;20024;-55
2023/06/23 06:39:13;;;;;;;3.58;1.70;;;20.80;99.90;;;;;;5065845;28;20021;-57
2023/06/23 06:41:43;;;;;;;2.35;1.95;;;20.80;99.90;;;;;;5057481;28;20021;-56
2023/06/23 06:44:10;;;;;;;2.95;1.73;;;20.80;99.90;;;;;;5066353;28;20032;-57
2023/06/23 06:46:39;;;;;;;2.30;2.10;;;20.90;99.90;;;;;;5072341;28;20032;-57
2023/06/23 06:49:11;;;;;;;5.22;1.88;;;20.90;99.90;;;;;;5071729;28;20029;-57
2023/06/23 06:51:40;;;;;;;4.30;1.70;;;20.90;23.20;;;;;;5072309;28;20025;-58
2023/06/23 06:54:12;;;;;;;1.92;1.50;;;21.10;1.00;;;;;;5072074;28;20024;-56
2023/06/23 06:56:43;;;;;;;2.35;1.73;;;21.20;10.10;;;;;;5071371;28;20020;-58
2023/06/23 06:59:08;;;;;;;2.90;1.60;;;21.30;1.00;;;;;;5071971;28;20037;-58
2023/06/23 07:01:39;;;;;;;5.32;1.85;;;21.30;1.00;;;;;;5071883;28;20032;-58
2023/06/23 07:04:06;;;;;;;3.97;1.38;;;21.20;1.00;;;;;;5071983;28;20013;-56
2023/06/23 07:06:34;;;;;;;1.23;1.13;;;21.20;99.90;;;;;;5071927;28;20024;-57
2023/06/23 07:08:59;;;;;;;2.42;1.30;;;20.90;1.00;;;;;;5071837;28;20016;-58
2023/06/23 07:11:25;;;;;;;3.92;1.20;;;20.90;1.00;;;;;;5071671;28;20032;-57
2023/06/23 07:13:50;;;;;;;3.53;1.50;;;20.60;1.00;;;;;;5071512;28;20020;-58
2023/06/23 07:16:16;;;;;;;2.53;1.42;;;20.40;99.90;;;;;;5071487;28;20612;-58
2023/06/23 07:18:42;;;;;;;1.95;1.02;;;20.40;99.90;;;;;;5071676;28;20025;-56
2023/06/23 07:21:09;;;;;;;2.70;1.25;;;20.50;99.90;;;;;;5071654;28;20055;-57
2023/06/23 07:23:34;;;;;;;1.67;1.00;;;20.50;99.90;;;;;;5070438;28;20029;-58
2023/06/23 07:26:00;;;;;;;1.50;1.20;;;20.60;99.90;;;;;;5071526;28;20024;-58
2023/06/23 07:28:26;;;;;;;2.28;1.70;;;20.50;95.90;;;;;;5071139;28;20035;-59
2023/06/23 07:30:51;;;;;;;1.75;1.10;;;20.70;88.80;;;;;;5069466;28;20111;-58
2023/06/23 07:33:17;;;;;;;3.05;1.10;;;20.60;1.00;;;;;;5071181;28;20484;-57
2023/06/23 07:35:43;;;;;;;2.60;1.40;;;20.50;1.00;;;;;;5071522;28;20055;-58
2023/06/23 07:38:09;;;;;;;2.38;1.17;;;20.50;1.00;;;;;;5071459;28;20055;-58
2023/06/23 07:40:34;;;;;;;1.55;1.20;;;20.70;1.00;;;;;;5070255;28;20031;-57
2023/06/23 07:43:00;;;;;;;1.20;0.98;;;21.10;1.00;;;;;;5070258;28;20032;-57
2023/06/23 07:45:26;;;;;;;5.25;1.08;;;21.30;99.90;;;;;;5071231;28;20025;-56
2023/06/23 07:47:51;;;;;;;2.30;1.13;;;21.30;99.90;;;;;;5070587;28;20055;-58
2023/06/23 07:50:17;;;;;;;3.55;0.68;;;21.60;1.00;;;;;;5070393;28;20024;-58
2023/06/23 07:52:51;;;;;;;2.58;1.35;;;21.80;99.90;;;;;;5071364;28;20020;-59
2023/06/23 07:55:20;;;;;;;2.63;1.00;;;21.70;99.90;;;;;;5071110;28;20021;-56
2023/06/23 07:57:46;;;;;;;1.20;1.10;;;21.70;99.90;;;;;;5070327;28;20098;-57
2023/06/23 08:00:12;;;;;;;1.67;1.00;;;21.60;99.90;;;;;;5073296;28;20107;-56
2023/06/23 08:02:38;;;;;;;2.85;1.13;;;21.30;1.00;;;;;;5075391;28;20020;-57
2023/06/23 08:05:04;;;;;;;2.83;0.93;;;21.10;99.90;;;;;;5074944;28;20028;-58
2023/06/23 08:07:30;;;;;;;3.15;0.82;;;21.10;99.90;;;;;;5075210;28;20025;-58
2023/06/23 08:09:55;;;;;;;2.03;1.20;;;20.80;1.00;;;;;;5075539;28;20459;-57
2023/06/23 08:12:21;;;;;;;1.35;0.85;;;20.80;1.00;;;;;;5075059;28;20016;-57
2023/06/23 08:14:47;;;;;;;4.55;0.90;;;21.00;73.80;;;;;;5075163;28;20024;-58
2023/06/23 08:17:12;;;;;;;3.63;1.10;;;21.20;99.90;;;;;;5074839;28;20032;-56
2023/06/23 08:19:38;;;;;;;1.25;0.90;;;21.60;1.00;;;;;;5075225;28;20028;-58
2023/06/23 08:22:04;;;;;;;4.70;1.38;;;21.50;99.90;;;;;;5074758;28;20032;-56
2023/06/23 08:24:30;;;;;;;2.10;1.23;;;21.70;99.90;;;;;;5075011;28;20429;-58
2023/06/23 08:26:56;;;;;;;2.00;1.10;;;22.00;99.90;;;;;;5075014;28;20099;-58
2023/06/23 08:29:21;;;;;;;1.65;1.23;;;21.80;99.90;;;;;;5074866;28;20027;-58
2023/06/23 08:31:47;;;;;;;1.98;1.02;;;21.50;1.00;;;;;;5074898;28;20061;-56
2023/06/23 08:34:12;;;;;;;4.32;1.33;;;20.80;99.90;;;;;;5074729;28;20410;-55
2023/06/23 08:36:38;;;;;;;5.43;1.10;;;20.50;5.70;;;;;;5074799;28;20020;-58
2023/06/23 08:39:04;;;;;;;4.75;1.15;;;20.20;1.00;;;;;;5074363;28;20624;-54
2023/06/23 08:41:32;;;;;;;0.90;0.65;;;20.10;99.90;;;;;;5074366;28;20028;-58
2023/06/23 08:44:01;;;;;;;8.05;1.60;;;20.10;99.90;;;;;;5074646;28;20016;-57
2023/06/23 08:46:31;;;;;;;0.90;0.75;;;19.80;99.90;;;;;;5074565;28;20032;-57
2023/06/23 08:49:01;;;;;;;1.70;1.08;;;19.80;99.90;;;;;;5074470;28;20028;-58
2023/06/23 08:51:27;;;;;;;1.48;1.33;;;19.60;99.90;;;;;;5066809;28;20412;-58
2023/06/23 08:53:52;;;;;;;3.75;0.70;;;19.70;1.00;;;;;;5060270;28;20024;-58
2023/06/23 08:56:18;;;;;;;2.03;0.77;;;19.70;1.00;;;;;;5074257;28;20070;-55
2023/06/23 08:58:44;;;;;;;5.25;1.02;;;19.60;1.00;;;;;;5072740;28;20079;-58
2023/06/23 09:01:09;;;;;;;2.50;2.15;;;19.60;1.00;;;;;;5058927;28;20410;-59
2023/06/23 09:03:35;;;;;;;3.10;1.67;;;19.20;1.00;;;;;;5072146;28;20070;-60
2023/06/23 09:06:01;;;;;;;4.80;2.75;;;19.50;1.00;;;;;;5072992;28;20406;-58
2023/06/23 09:08:27;;;;;;;2.53;2.33;;;19.60;1.00;;;;;;5063972;28;20033;-55
2023/06/23 09:10:52;;;;;;;3.03;2.72;;;19.60;99.90;;;;;;5053303;28;20400;-57
2023/06/23 09:13:23;;;;;;;3.58;3.05;;;20.10;99.90;;;;;;5053994;28;20384;-58
2023/06/23 09:15:50;;;;;;;3.58;3.08;;;20.30;99.90;;;;;;5064586;28;20456;-57
2023/06/23 09:18:17;;;;;;;3.63;3.33;;;20.10;99.90;;;;;;5056268;28;20059;-56
2023/06/23 09:20:48;;;;;;;4.55;4.13;;;20.30;99.90;;;;;;5068205;28;20075;-58
2023/06/23 09:23:20;;;;;;;7.10;3.97;;;20.40;99.90;;;;;;5073744;28;20082;-58
2023/06/23 09:25:49;;;;;;;6.47;3.35;;;20.70;99.90;;;;;;5073269;28;20081;-57
2023/06/23 09:28:21;;;;;;;3.47;2.72;;;21.00;99.90;;;;;;5071945;28;20663;-58
2023/06/23 09:30:47;;;;;;;4.20;3.33;;;21.00;8.70;;;;;;5069362;28;20099;-59
2023/06/23 09:33:12;;;;;;;4.43;3.33;;;20.70;99.90;;;;;;5053659;28;20029;-59
2023/06/23 09:35:48;;;;;;;6.07;3.42;;;20.80;70.80;;;;;;5052629;28;20099;-57
2023/06/23 09:38:27;;;;;;;6.18;3.75;;;20.80;54.10;;;;;;5053110;28;20025;-60
2023/06/23 09:41:16;;;;;;;4.75;4.03;;;21.00;1.00;;;;;;5053097;28;20025;-58
2023/06/23 09:43:52;;;;;;;4.25;3.85;;;21.00;1.00;;;;;;5053030;28;20021;-57
2023/06/23 09:46:24;;;;;;;8.77;3.15;;;21.40;1.00;;;;;;5052817;28;20090;-54
2023/06/23 09:48:51;;;;;;;4.35;3.63;;;21.60;1.00;;;;;;5069759;28;20078;-56
2023/06/23 09:51:20;;;;;;;5.85;4.05;;;21.50;1.00;;;;;;5067978;28;20027;-54
2023/06/23 09:53:47;;;;;;;4.65;4.22;;;21.40;1.00;;;;;;5070830;28;20012;-57
2023/06/23 09:56:16;;;;;;;6.63;4.03;;;21.00;1.00;;;;;;5073516;28;20613;-56
2023/06/23 10:20:32;;;;;;;7.20;5.18;;;19.70;99.90;;;;;;4726850;28;20035;-57
2023/06/23 10:22:58;;;;;;;7.53;6.13;;;19.60;99.90;;;;;;5059493;28;20029;-58
2023/06/23 10:25:26;;;;;;;6.88;5.78;;;19.30;99.90;;;;;;5062339;28;20103;-55
2023/06/23 10:27:55;;;;;;;8.77;5.90;;;19.30;99.90;;;;;;5072043;28;20096;-55
2023/06/23 10:30:22;;;;;;;7.78;6.30;;;19.40;99.90;;;;;;5072324;28;20368;-55
2023/06/23 10:32:53;;;;;;;8.13;5.75;;;19.60;99.90;;;;;;5070696;28;20032;-57
2023/06/23 10:35:21;;;;;;;8.00;6.20;;;20.30;99.90;;;;;;5060690;28;20437;-57
2023/06/23 10:37:49;;;;;;;8.57;6.03;;;20.90;99.90;;;;;;5061534;28;20039;-56
2023/06/23 10:40:20;;;;;;;9.90;6.68;;;21.20;9.50;;;;;;5048637;28;20033;-57
2023/06/23 10:42:48;;;;;;;10.13;6.53;;;22.20;1.00;;;;;;5041843;28;20036;-56
2023/06/23 10:45:14;;;;;;;7.10;6.00;;;22.80;99.90;;;;;;5041581;28;20044;-58
2023/06/23 10:47:40;;;;;;;8.35;5.70;;;23.20;1.00;;;;;;5041869;28;20476;-57
2023/06/23 10:50:08;;;;;;;9.30;6.55;;;22.90;1.00;;;;;;5041602;28;20020;-56
2023/06/23 10:52:34;;;;;;;8.75;6.55;;;22.20;99.90;;;;;;5041243;28;20024;-57
2023/06/23 10:55:00;;;;;;;8.70;6.15;;;21.80;99.90;;;;;;5041668;28;20048;-58
2023/06/23 10:57:26;;;;;;;7.00;5.95;;;21.80;1.00;;;;;;5040230;28;20024;-56
2023/06/23 10:59:59;;;;;;;7.18;6.20;;;21.40;1.00;;;;;;5041731;28;20147;-55
2023/06/23 11:02:25;;;;;;;6.37;5.70;;;21.20;1.00;;;;;;5042349;28;20040;-56
2023/06/23 11:05:01;;;;;;;9.32;6.22;;;21.30;99.90;;;;;;5041504;28;20750;-54
2023/06/23 11:07:27;;;;;;;13.68;6.28;;;21.30;99.90;;;;;;5041155;28;20036;-57
2023/06/23 11:09:58;;;;;;;9.27;5.50;;;21.20;99.90;;;;;;5040967;28;20021;-56
2023/06/23 11:12:38;;;;;;;8.55;6.57;;;21.30;99.90;;;;;;5041411;28;20032;-58
2023/06/23 11:15:13;;;;;;;9.52;6.13;;;21.20;99.90;;;;;;5040784;28;20029;-57
2023/06/23 11:17:44;;;;;;;8.48;6.13;;;21.00;99.90;;;;;;5041101;28;20044;-56
2023/06/23 11:20:12;;;;;;;8.45;7.00;;;21.10;99.90;;;;;;5040939;28;20488;-57
2023/06/23 11:22:55;;;;;;;8.23;6.45;;;20.90;99.90;;;;;;5038751;28;20055;-58
2023/06/23 11:25:39;;;;;;;9.23;7.05;;;20.70;99.90;;;;;;5040810;28;20094;-58
2023/06/23 11:28:26;;;;;;;9.43;7.15;;;20.50;99.90;;;;;;5041080;28;20150;-58
2023/06/23 11:31:28;;;;;;;8.50;6.93;;;20.20;99.90;;;;;;5040593;28;20036;-57
2023/06/23 11:34:02;;;;;;;11.63;7.28;;;20.00;1.00;;;;;;5056340;28;20086;-57
2023/06/23 11:36:29;;;;;;;;;;;20.10;1.00;;;;;;5043138;28;20055;-57
2023/06/23 11:38:56;;;;;;;8.63;6.93;;;20.30;1.00;;;;;;5041016;28;19905;-56
2023/06/23 11:41:27;;;;;;;10.95;7.13;;;20.30;1.00;;;;;;5041205;28;20040;-57
2023/06/23 11:44:03;;;;;;;10.02;8.07;;;20.50;1.00;;;;;;5040880;28;20037;-58
2023/06/23 11:46:33;;;;;;;12.38;7.70;;;20.70;99.90;;;;;;5059497;28;20059;-54
2023/06/23 11:49:10;;;;;;;9.70;8.43;;;20.90;1.00;;;;;;5059155;28;20036;-58
2023/06/23 11:51:36;;;;;;;11.27;8.70;;;21.10;99.90;;;;;;5040561;28;20070;-56
2023/06/23 11:54:02;;;;;;;10.35;7.68;;;21.60;99.90;;;;;;5040855;28;20040;-57
2023/06/23 11:56:28;;;;;;;10.95;7.93;;;21.70;60.50;;;;;;5040021;28;20562;-58
2023/06/23 11:58:57;;;;;;;8.43;7.40;;;21.90;1.00;;;;;;5040260;28;20037;-59
2023/06/23 12:01:23;;;;;;;8.00;7.20;;;21.80;1.00;;;;;;5059593;28;20025;-58
2023/06/23 12:03:50;;;;;;;9.63;7.63;;;22.20;1.00;;;;;;5045569;28;20041;-58
2023/06/23 12:06:17;;;;;;;10.02;7.82;;;22.50;1.00;;;;;;5059763;28;22443;-56
2023/06/23 12:08:45;;;;;;;16.83;9.00;;;22.90;1.00;;;;;;5071294;28;20029;-59
2023/06/23 12:11:10;;;;;;;7.95;6.75;;;23.20;99.90;;;;;;5070968;28;20056;-59
2023/06/23 12:13:39;;;;;;;10.40;8.30;;;23.30;77.50;;;;;;5070878;28;20083;-58
2023/06/23 12:16:07;;;;;;;9.95;8.45;;;23.50;99.90;;;;;;5071330;28;20490;-58
2023/06/23 12:18:45;;;;;;;12.68;7.82;;;23.20;1.00;;;;;;5071161;28;20036;-58
2023/06/23 12:21:11;;;;;;;11.70;7.30;;;23.70;52.30;;;;;;5070864;28;20052;-59
2023/06/23 12:23:37;;;;;;;8.25;6.25;;;23.60;1.00;;;;;;5069649;28;20036;-58
2023/06/23 12:26:05;;;;;;;14.30;6.68;;;23.50;99.90;;;;;;5071060;28;20111;-59
2023/06/23 12:28:31;;;;;;;11.45;7.88;;;23.50;99.90;;;;;;5070884;28;20023;-59
2023/06/23 12:30:57;;;;;;;9.40;6.93;;;23.60;99.90;;;;;;5071139;28;20017;-59
2023/06/23 12:33:23;;;;;;;7.63;6.78;;;24.00;99.90;;;;;;5070633;28;20029;-59
2023/06/23 12:35:59;;;;;;;10.85;7.35;;;23.90;99.90;;;;;;5071095;28;20049;-58
2023/06/23 12:38:25;;;;;;;8.02;6.70;;;23.90;1.00;;;;;;5070777;28;20399;-59
2023/06/23 12:40:51;;;;;;;8.85;7.53;;;24.40;99.90;;;;;;5070908;28;20032;-59
2023/06/23 12:43:18;;;;;;;12.50;7.90;;;24.30;1.00;;;;;;5070630;28;20028;-59
2023/06/23 12:45:53;;;;;;;9.10;7.95;;;23.40;1.00;;;;;;5070948;28;20074;-59
2023/06/23 12:48:22;;;;;;;8.98;7.70;;;22.90;1.00;;;;;;5074592;28;20024;-60
2023/06/23 12:50:53;;;;;;;10.80;7.13;;;22.50;99.90;;;;;;5074642;28;20013;-58
2023/06/23 12:53:19;;;;;;;9.38;8.02;;;22.60;99.90;;;;;;5065585;28;20024;-57
2023/06/23 12:55:45;;;;;;;12.98;8.70;;;22.40;99.90;;;;;;5075150;28;20032;-57
2023/06/23 12:58:10;;;;;;;12.40;8.43;;;22.00;99.90;;;;;;5074364;28;20414;-58
2023/06/23 13:00:36;;;;;;;10.30;7.78;;;21.80;1.00;;;;;;5074444;28;20032;-56
2023/06/23 13:03:04;;;;;;;9.57;7.95;;;21.70;1.00;;;;;;5073971;28;20032;-58
2023/06/23 13:05:30;;;;;;;10.30;8.60;;;21.90;99.90;;;;;;5074048;28;20094;-57
2023/06/23 13:07:57;;;;;;;9.25;7.43;;;22.10;99.90;;;;;;5072883;28;20108;-58
2023/06/23 13:10:23;;;;;;;12.45;7.35;;;22.90;99.90;;;;;;5074083;28;20402;-58
2023/06/23 13:12:48;;;;;;;10.02;7.45;;;24.30;99.90;;;;;;5072695;28;20020;-58
2023/06/23 13:15:14;;;;;;;11.07;6.85;;;25.10;1.00;;;;;;5073982;28;20467;-58
2023/06/23 13:17:40;;;;;;;8.77;7.60;;;25.30;1.00;;;;;;5074005;28;20483;-58
2023/06/23 13:20:06;;;;;;;8.90;6.40;;;25.70;34.20;;;;;;5073900;28;20037;-58